Byron, Wyoming
Current Conditions -  °F | °C
As of 7:35 PM on Saturday 22 Nov 2014 (Local Time) from KU68 Reporting Station
Clear Clear  
Wind Chill: 25°   Ceiling: Unl
Heat Index: 34°   Visibility: 10mi
Dew Point: 23°   Wind: 12mph
Humidity: 65%   Direction: 290°WNW
Pressure: 29.57"   Gusts: NA
Location:  44.8°N, 108.51°W
Report Text: KU68 230235Z AUTO 29010KT 10SM CLR 01/M05 A2957 RMK AO2 PWINO
Loading
Personal Weather Stations






























Interactive Weather Map New forecast layout! Learn more

10-Day Weather Forecast

Advertisements
Track Severe Weather on mobile